createdAt,value
2022-08-17T00:00:01.516Z,62.45
2022-08-17T00:02:29.229Z,62.67
2022-08-17T00:04:57.994Z,62.55
2022-08-17T00:07:24.853Z,63.00
2022-08-17T00:09:51.678Z,63.63
2022-08-17T00:12:43.380Z,63.77
2022-08-17T00:15:09.180Z,64.30
2022-08-17T00:17:37.895Z,63.57
2022-08-17T00:20:06.001Z,63.34
2022-08-17T00:22:36.385Z,63.41
2022-08-17T00:25:13.679Z,63.05
2022-08-17T00:27:41.125Z,63.68
2022-08-17T00:30:11.614Z,64.37
2022-08-17T00:33:12.633Z,64.59
2022-08-17T00:35:32.524Z,64.68
2022-08-17T00:37:59.502Z,64.76
2022-08-17T00:40:26.900Z,64.79
2022-08-17T00:43:26.423Z,64.86
2022-08-17T00:45:54.955Z,65.78
2022-08-17T00:48:28.994Z,65.91
2022-08-17T00:51:41.397Z,65.43
2022-08-17T00:54:24.928Z,65.71
2022-08-17T00:57:07.614Z,65.95
2022-08-17T00:59:44.631Z,65.96
2022-08-17T01:02:15.018Z,65.95
2022-08-17T01:04:45.056Z,66.21
2022-08-17T01:07:12.934Z,66.24
2022-08-17T01:09:42.629Z,66.86
2022-08-17T01:12:10.667Z,66.81
2022-08-17T01:14:39.020Z,66.63
2022-08-17T01:17:07.069Z,66.68
2022-08-17T01:19:37.805Z,66.36
2022-08-17T01:22:14.321Z,66.40
2022-08-17T01:24:48.761Z,66.25
2022-08-17T01:27:18.530Z,66.23
2022-08-17T01:29:53.099Z,66.20
2022-08-17T01:32:20.492Z,66.73
2022-08-17T01:34:50.439Z,66.34
2022-08-17T01:37:21.113Z,66.50
2022-08-17T01:39:59.424Z,66.14
2022-08-17T01:42:52.189Z,65.48
2022-08-17T01:45:26.627Z,65.21
2022-08-17T01:47:54.515Z,64.63
2022-08-17T01:50:29.297Z,64.37
2022-08-17T01:53:00.582Z,64.26
2022-08-17T01:55:34.255Z,64.27
2022-08-17T01:58:01.310Z,64.47
2022-08-17T02:00:46.769Z,64.79
2022-08-17T02:03:16.268Z,65.05
2022-08-17T02:05:44.483Z,65.42
2022-08-17T02:08:19.824Z,65.83
2022-08-17T02:10:49.906Z,66.26
2022-08-17T02:13:19.613Z,66.18
2022-08-17T02:15:47.050Z,66.28
2022-08-17T02:18:15.850Z,66.88
2022-08-17T02:20:43.169Z,67.06
2022-08-17T02:23:13.028Z,67.28
2022-08-17T02:25:43.373Z,67.52
2022-08-17T02:28:10.657Z,68.01
2022-08-17T02:31:00.969Z,68.17
2022-08-17T02:33:24.888Z,68.11
2022-08-17T02:36:10.350Z,67.42
2022-08-17T02:38:39.373Z,67.35
2022-08-17T02:41:06.716Z,67.47
2022-08-17T02:43:33.825Z,67.36
2022-08-17T02:46:00.680Z,67.83
2022-08-17T02:48:30.710Z,68.42
2022-08-17T02:51:00.449Z,68.98
2022-08-17T02:53:27.982Z,70.31
2022-08-17T02:56:02.713Z,70.16
2022-08-17T02:58:35.115Z,70.12
2022-08-17T03:01:09.645Z,70.23
2022-08-17T03:03:38.229Z,69.46
2022-08-17T03:06:07.646Z,69.49
2022-08-17T03:08:35.223Z,69.27
2022-08-17T03:11:02.058Z,69.14
2022-08-17T03:13:30.657Z,69.33
2022-08-17T03:15:57.618Z,68.92
2022-08-17T03:18:26.322Z,68.87
2022-08-17T03:20:56.721Z,68.72
2022-08-17T03:23:25.710Z,68.89
2022-08-17T03:25:54.330Z,68.16
2022-08-17T03:28:22.329Z,67.67
2022-08-17T03:30:51.081Z,67.65
2022-08-17T03:33:19.275Z,67.78
2022-08-17T03:35:46.788Z,67.74
2022-08-17T03:38:15.867Z,67.96
2022-08-17T03:40:56.648Z,67.89
2022-08-17T03:43:30.394Z,68.37
2022-08-17T03:46:28.423Z,68.57
2022-08-17T03:49:26.037Z,68.48
2022-08-17T03:52:16.234Z,68.84
2022-08-17T03:55:03.401Z,68.76
2022-08-17T03:57:31.985Z,67.10
2022-08-17T03:59:59.698Z,66.16
2022-08-17T04:02:32.963Z,66.68
2022-08-17T04:05:00.611Z,66.16
2022-08-17T04:07:30.355Z,66.08
2022-08-17T04:09:58.156Z,66.67
2022-08-17T04:12:30.524Z,67.30
2022-08-17T04:14:58.266Z,68.84
2022-08-17T04:17:28.763Z,68.80
2022-08-17T04:19:56.114Z,67.90
2022-08-17T04:22:30.954Z,67.50
2022-08-17T04:24:59.306Z,67.27
2022-08-17T04:27:26.143Z,68.51
2022-08-17T04:29:54.905Z,69.23
2022-08-17T04:33:05.090Z,69.31
2022-08-17T04:35:10.186Z,69.40
2022-08-17T04:37:37.583Z,69.98
2022-08-17T04:40:27.518Z,70.05
2022-08-17T04:43:16.451Z,69.75
2022-08-17T04:45:55.779Z,69.78
2022-08-17T04:48:27.878Z,70.00
2022-08-17T04:51:04.846Z,70.01
2022-08-17T04:53:31.793Z,69.50
2022-08-17T04:55:59.059Z,69.20
2022-08-17T04:58:26.133Z,69.66
2022-08-17T05:00:53.353Z,68.82
2022-08-17T05:03:20.177Z,68.72
2022-08-17T05:05:50.007Z,68.83
2022-08-17T05:08:19.848Z,68.58
2022-08-17T05:10:48.802Z,68.92
2022-08-17T05:13:22.911Z,67.58
2022-08-17T05:15:55.087Z,67.11
2022-08-17T05:18:22.128Z,66.63
2022-08-17T05:20:52.596Z,65.84
2022-08-17T05:23:22.603Z,65.23
2022-08-17T05:25:52.277Z,65.19
2022-08-17T05:28:24.207Z,64.85
2022-08-17T05:30:57.896Z,64.75
2022-08-17T05:33:29.271Z,63.98
2022-08-17T05:35:59.201Z,63.56
2022-08-17T05:38:28.346Z,62.37
2022-08-17T05:40:55.893Z,62.45
2022-08-17T05:43:30.172Z,62.04
2022-08-17T05:46:24.268Z,60.67
2022-08-17T05:48:56.558Z,60.98
2022-08-17T05:51:38.512Z,60.27
2022-08-17T05:54:42.552Z,59.29
2022-08-17T05:57:34.657Z,58.61
2022-08-17T06:00:30.118Z,57.93
2022-08-17T06:03:14.762Z,57.59
2022-08-17T06:06:03.299Z,56.52
2022-08-17T06:09:02.242Z,56.95
2022-08-17T06:11:37.303Z,56.32
2022-08-17T06:14:44.665Z,54.63
2022-08-17T06:17:15.979Z,54.26
2022-08-17T06:19:51.399Z,56.40
2022-08-17T06:22:22.857Z,56.61
2022-08-17T06:25:25.914Z,55.43
2022-08-17T06:28:30.090Z,54.95
2022-08-17T06:31:07.188Z,55.21
2022-08-17T06:33:37.693Z,53.83
2022-08-17T06:36:26.435Z,51.77
2022-08-17T06:39:26.442Z,50.34
2022-08-17T06:43:05.150Z,49.91
2022-08-17T06:45:31.202Z,48.31
2022-08-17T06:48:33.851Z,48.44
2022-08-17T06:51:25.876Z,47.98
2022-08-17T06:54:26.069Z,47.34
2022-08-17T06:57:02.511Z,46.55
2022-08-17T06:59:55.362Z,46.46
2022-08-17T07:02:58.724Z,46.40
2022-08-17T07:05:44.756Z,46.95
2022-08-17T07:08:35.583Z,46.85
2022-08-17T07:11:07.929Z,45.33
2022-08-17T07:13:56.997Z,45.48
2022-08-17T07:16:39.233Z,44.99
2022-08-17T07:19:07.544Z,44.98
2022-08-17T07:21:56.227Z,44.60
2022-08-17T07:24:51.602Z,44.39
2022-08-17T07:27:42.843Z,43.58
2022-08-17T07:30:16.384Z,43.27
2022-08-17T07:32:46.337Z,42.74
2022-08-17T07:35:23.007Z,42.37
2022-08-17T07:38:28.417Z,42.18
2022-08-17T07:41:01.075Z,41.71
2022-08-17T07:43:54.557Z,41.72
2022-08-17T07:46:53.054Z,40.06
2022-08-17T07:49:41.606Z,39.99
2022-08-17T07:52:50.573Z,39.46
2022-08-17T07:55:34.861Z,39.27
2022-08-17T07:58:02.000Z,40.25
2022-08-17T08:00:32.395Z,38.71
2022-08-17T08:03:27.115Z,39.20
2022-08-17T08:06:03.206Z,39.46
2022-08-17T08:08:42.150Z,38.42
2022-08-17T08:11:16.773Z,38.89
2022-08-17T08:13:45.555Z,37.63
2022-08-17T08:16:24.232Z,37.46
2022-08-17T08:18:57.708Z,37.46
2022-08-17T08:21:47.168Z,37.35
2022-08-17T08:24:46.160Z,37.37
2022-08-17T08:27:46.243Z,38.45
2022-08-17T08:30:21.211Z,37.81
2022-08-17T08:33:09.182Z,37.30
2022-08-17T08:35:56.149Z,37.29
2022-08-17T08:38:44.988Z,37.27
2022-08-17T08:41:24.071Z,36.46
2022-08-17T08:44:08.404Z,36.65
2022-08-17T08:46:53.136Z,36.63
2022-08-17T08:50:01.239Z,37.01
2022-08-17T08:53:00.176Z,37.29
2022-08-17T08:56:03.864Z,38.78
2022-08-17T08:58:43.526Z,38.38
2022-08-17T09:01:39.130Z,38.64
2022-08-17T09:05:10.755Z,38.74
2022-08-17T09:07:54.642Z,38.79
2022-08-17T09:10:57.500Z,38.76
2022-08-17T09:14:00.381Z,39.49
2022-08-17T09:17:09.129Z,38.08
2022-08-17T09:19:56.998Z,38.70
2022-08-17T09:22:34.434Z,39.20
2022-08-17T09:25:16.710Z,37.89
2022-08-17T09:28:03.687Z,37.76
2022-08-17T09:30:46.323Z,37.71
2022-08-17T09:33:22.740Z,36.80
2022-08-17T09:36:26.306Z,37.46
2022-08-17T09:39:13.206Z,35.83
2022-08-17T09:41:49.313Z,36.37
2022-08-17T09:44:41.549Z,35.12
2022-08-17T09:47:42.029Z,36.35
2022-08-17T09:51:03.387Z,35.11
2022-08-17T09:53:32.036Z,35.17
2022-08-17T09:56:31.570Z,33.99
2022-08-17T09:59:38.176Z,34.28
2022-08-17T10:02:54.383Z,33.80
2022-08-17T10:05:57.115Z,33.81
2022-08-17T10:09:16.060Z,33.32
2022-08-17T10:12:12.708Z,33.91
2022-08-17T10:14:53.401Z,33.58
2022-08-17T10:17:56.298Z,31.95
2022-08-17T10:20:31.701Z,32.79
2022-08-17T10:23:56.256Z,32.16
2022-08-17T10:26:26.332Z,31.63
2022-08-17T10:28:59.990Z,31.83
2022-08-17T10:31:40.132Z,31.93
2022-08-17T10:34:51.801Z,32.26
2022-08-17T10:37:53.636Z,31.18
2022-08-17T10:40:54.390Z,30.79
2022-08-17T10:44:38.043Z,31.64
2022-08-17T10:47:14.354Z,30.41
2022-08-17T10:49:49.498Z,30.28
2022-08-17T10:52:30.390Z,30.72
2022-08-17T10:55:17.802Z,30.40
2022-08-17T10:57:50.084Z,31.07
2022-08-17T11:00:28.393Z,29.60
2022-08-17T11:02:57.478Z,29.89
2022-08-17T11:05:52.221Z,29.79
2022-08-17T11:08:56.902Z,30.14
2022-08-17T11:11:47.392Z,30.77
2022-08-17T11:14:41.841Z,29.68
2022-08-17T11:18:01.454Z,30.11
2022-08-17T11:20:49.237Z,29.88
2022-08-17T11:23:35.392Z,29.46
2022-08-17T11:26:19.018Z,31.00
2022-08-17T11:28:54.295Z,28.96
2022-08-17T11:31:46.553Z,29.84
2022-08-17T11:34:26.410Z,29.66
2022-08-17T11:37:03.650Z,29.02
2022-08-17T11:40:08.965Z,29.28
2022-08-17T11:42:54.587Z,28.47
2022-08-17T11:45:36.401Z,27.59
2022-08-17T11:49:25.642Z,27.53
2022-08-17T11:52:01.245Z,27.84
2022-08-17T11:54:33.649Z,28.84
2022-08-17T11:57:25.474Z,27.70
2022-08-17T12:00:12.398Z,27.30
2022-08-17T12:02:48.254Z,27.06
2022-08-17T12:05:16.856Z,26.41
2022-08-17T12:07:51.915Z,26.43
2022-08-17T12:10:31.490Z,26.80
2022-08-17T12:13:06.403Z,27.46
2022-08-17T12:15:41.576Z,27.21
2022-08-17T12:18:08.950Z,26.61
2022-08-17T12:20:41.432Z,26.55
2022-08-17T12:23:28.018Z,25.00
2022-08-17T12:26:17.578Z,25.80
2022-08-17T12:28:55.886Z,25.92
2022-08-17T12:31:44.902Z,25.28
2022-08-17T12:34:27.740Z,24.75
2022-08-17T12:37:22.427Z,25.31
2022-08-17T12:39:59.183Z,25.46
2022-08-17T12:42:37.702Z,25.28
2022-08-17T12:45:07.806Z,24.74
2022-08-17T12:47:38.037Z,25.10
2022-08-17T12:50:28.881Z,24.94
2022-08-17T12:53:01.732Z,26.07
2022-08-17T12:55:32.606Z,25.16
2022-08-17T12:58:02.359Z,25.48
2022-08-17T13:00:35.239Z,26.05
2022-08-17T13:03:13.282Z,25.75
2022-08-17T13:05:54.147Z,25.53
2022-08-17T13:08:35.469Z,25.11
2022-08-17T13:11:20.899Z,24.79
2022-08-17T13:13:53.341Z,24.53
2022-08-17T13:16:26.718Z,24.53
2022-08-17T13:18:55.272Z,24.51
2022-08-17T13:21:30.466Z,24.23
2022-08-17T13:24:13.732Z,24.41
2022-08-17T13:27:08.234Z,24.42
2022-08-17T13:29:51.528Z,23.96
2022-08-17T13:32:43.854Z,23.09
2022-08-17T13:35:44.145Z,22.78
2022-08-17T13:38:49.631Z,22.67
2022-08-17T13:41:35.882Z,23.36
2022-08-17T13:44:37.019Z,23.40
2022-08-17T13:47:16.328Z,24.75
2022-08-17T13:49:49.274Z,25.79
2022-08-17T13:52:52.382Z,24.60
2022-08-17T13:55:22.022Z,24.06
2022-08-17T13:57:57.786Z,24.25
2022-08-17T14:00:36.298Z,26.44
2022-08-17T14:03:05.464Z,25.24
2022-08-17T14:05:33.706Z,25.15
2022-08-17T14:08:06.503Z,23.95
2022-08-17T14:10:36.257Z,23.50
2022-08-17T14:13:03.552Z,24.17
2022-08-17T14:15:56.108Z,24.19
2022-08-17T14:18:35.480Z,23.73
2022-08-17T14:21:08.381Z,22.48
2022-08-17T14:23:36.660Z,22.97
2022-08-17T14:26:03.889Z,21.65
2022-08-17T14:28:30.730Z,21.87
2022-08-17T14:31:00.685Z,21.56
2022-08-17T14:33:28.882Z,20.39
2022-08-17T14:35:57.436Z,19.58
2022-08-17T14:38:24.648Z,20.87
2022-08-17T14:40:51.843Z,20.38
2022-08-17T14:43:20.393Z,19.10
2022-08-17T14:45:47.529Z,18.01
2022-08-17T14:48:14.459Z,19.04
2022-08-17T14:50:43.189Z,18.45
2022-08-17T14:53:12.693Z,18.47
2022-08-17T14:55:40.352Z,18.67
2022-08-17T14:58:08.675Z,19.00
2022-08-17T15:00:39.358Z,18.54
2022-08-17T15:03:06.255Z,18.86
2022-08-17T15:05:37.135Z,19.00
2022-08-17T15:08:05.617Z,18.09
2022-08-17T15:10:33.210Z,18.27
2022-08-17T15:13:00.622Z,17.19
2022-08-17T15:15:28.782Z,16.27
2022-08-17T15:17:56.031Z,17.57
2022-08-17T15:20:27.915Z,17.04
2022-08-17T15:22:56.134Z,17.93
2022-08-17T15:25:27.418Z,17.50
2022-08-17T15:27:55.808Z,18.04
2022-08-17T15:30:23.533Z,18.87
2022-08-17T15:32:54.557Z,20.31
2022-08-17T15:35:28.388Z,22.09
2022-08-17T15:38:10.720Z,23.07
2022-08-17T15:40:46.674Z,23.54
2022-08-17T15:43:27.746Z,23.84
2022-08-17T15:46:00.246Z,24.54
2022-08-17T15:48:42.083Z,24.42
2022-08-17T15:51:21.356Z,24.67
2022-08-17T15:53:52.920Z,25.18
2022-08-17T15:56:20.560Z,24.71
2022-08-17T15:58:48.846Z,27.09
2022-08-17T16:01:35.160Z,26.57
2022-08-17T16:04:26.487Z,26.68
2022-08-17T16:06:54.223Z,27.18
2022-08-17T16:09:21.046Z,27.71
2022-08-17T16:11:52.185Z,27.89
2022-08-17T16:14:22.575Z,28.38
2022-08-17T16:16:51.076Z,29.89
2022-08-17T16:19:17.928Z,29.68
2022-08-17T16:21:44.807Z,29.57
2022-08-17T16:24:13.080Z,30.26
2022-08-17T16:26:40.868Z,29.88
2022-08-17T16:29:08.904Z,30.35
2022-08-17T16:31:37.593Z,30.82
2022-08-17T16:34:17.354Z,31.53
2022-08-17T16:36:54.722Z,32.72
2022-08-17T16:39:26.348Z,34.41
2022-08-17T16:41:53.328Z,34.52
2022-08-17T16:44:21.726Z,35.62
2022-08-17T16:46:50.249Z,36.45
2022-08-17T16:49:25.711Z,35.77
2022-08-17T16:52:07.431Z,36.82
2022-08-17T16:54:35.374Z,36.68
2022-08-17T16:57:05.033Z,37.00
2022-08-17T16:59:40.720Z,37.22
2022-08-17T17:02:11.270Z,36.83
2022-08-17T17:04:53.664Z,36.25
2022-08-17T17:08:03.360Z,37.41
2022-08-17T17:10:45.696Z,38.00
2022-08-17T17:13:35.591Z,38.68
2022-08-17T17:16:28.531Z,38.19
2022-08-17T17:19:10.750Z,37.91
2022-08-17T17:21:47.212Z,38.13
2022-08-17T17:24:25.135Z,38.89
2022-08-17T17:26:56.715Z,39.35
2022-08-17T17:30:04.595Z,39.22
2022-08-17T17:32:56.458Z,39.32
2022-08-17T17:35:34.588Z,38.87
2022-08-17T17:38:15.313Z,39.28
2022-08-17T17:40:50.763Z,39.87
2022-08-17T17:43:38.157Z,40.33
2022-08-17T17:46:28.278Z,40.15
2022-08-17T17:48:59.334Z,40.32
2022-08-17T17:52:08.729Z,40.23
2022-08-17T17:55:08.305Z,41.08
2022-08-17T17:57:44.802Z,41.84
2022-08-17T18:00:24.545Z,41.15
2022-08-17T18:03:19.390Z,40.81
2022-08-17T18:06:10.320Z,41.65
2022-08-17T18:09:10.250Z,42.88
2022-08-17T18:12:05.355Z,44.02
2022-08-17T18:15:09.948Z,43.46
2022-08-17T18:17:36.997Z,43.46
2022-08-17T18:20:07.353Z,43.68
2022-08-17T18:22:34.278Z,43.77
2022-08-17T18:25:01.500Z,43.77
2022-08-17T18:27:39.484Z,44.30
2022-08-17T18:30:12.480Z,44.64
2022-08-17T18:32:46.718Z,44.86
2022-08-17T18:35:16.168Z,45.37
2022-08-17T18:38:20.098Z,45.92
2022-08-17T18:41:20.083Z,45.99
2022-08-17T18:44:05.541Z,45.23
2022-08-17T18:46:36.571Z,45.09
2022-08-17T18:49:28.947Z,43.96
2022-08-17T18:52:28.808Z,44.09
2022-08-17T18:55:13.206Z,44.14
2022-08-17T18:57:52.299Z,45.00
2022-08-17T19:00:32.086Z,45.21
2022-08-17T19:03:16.748Z,45.72
2022-08-17T19:05:54.670Z,46.14
2022-08-17T19:08:33.557Z,46.04
2022-08-17T19:11:10.423Z,46.42
2022-08-17T19:13:53.605Z,46.25
2022-08-17T19:16:27.396Z,46.35
2022-08-17T19:19:19.571Z,46.06
2022-08-17T19:21:59.521Z,46.04
2022-08-17T19:24:30.949Z,45.99
2022-08-17T19:27:08.014Z,45.62
2022-08-17T19:29:57.997Z,45.37
2022-08-17T19:32:34.287Z,45.34
2022-08-17T19:35:03.115Z,44.73
2022-08-17T19:37:58.877Z,44.53
2022-08-17T19:40:52.743Z,44.48
2022-08-17T19:43:51.425Z,44.28
2022-08-17T19:46:50.688Z,43.83
2022-08-17T19:49:45.568Z,43.76
2022-08-17T19:52:47.422Z,44.76
2022-08-17T19:55:53.697Z,44.18
2022-08-17T19:58:48.294Z,44.33
2022-08-17T20:01:45.496Z,44.66
2022-08-17T20:04:32.446Z,45.30
2022-08-17T20:07:54.569Z,47.75
2022-08-17T20:11:18.403Z,48.35
2022-08-17T20:14:00.078Z,47.71
2022-08-17T20:16:27.109Z,47.07
2022-08-17T20:19:08.786Z,47.34
2022-08-17T20:22:04.353Z,48.22
2022-08-17T20:24:51.093Z,47.44
2022-08-17T20:27:32.152Z,47.32
2022-08-17T20:29:59.091Z,48.13
2022-08-17T20:32:52.742Z,48.51
2022-08-17T20:35:39.464Z,47.91
2022-08-17T20:38:14.262Z,48.74
2022-08-17T20:41:01.107Z,49.67
2022-08-17T20:43:33.973Z,49.20
2022-08-17T20:46:32.894Z,49.46
2022-08-17T20:49:14.975Z,50.47
2022-08-17T20:52:00.840Z,49.59
2022-08-17T20:54:54.818Z,49.42
2022-08-17T20:57:37.571Z,47.25
2022-08-17T21:00:16.351Z,47.01
2022-08-17T21:02:51.955Z,46.08
2022-08-17T21:05:34.666Z,45.98
2022-08-17T21:08:17.110Z,46.26
2022-08-17T21:10:47.009Z,46.22
2022-08-17T21:13:15.348Z,45.96
2022-08-17T21:15:52.506Z,45.72
2022-08-17T21:19:10.101Z,45.38
2022-08-17T21:21:58.161Z,45.12
2022-08-17T21:25:02.656Z,45.24
2022-08-17T21:28:02.951Z,44.91
2022-08-17T21:30:30.360Z,44.59
2022-08-17T21:33:20.075Z,44.03
2022-08-17T21:36:11.776Z,43.96
2022-08-17T21:38:47.205Z,43.71
2022-08-17T21:41:31.187Z,43.94
2022-08-17T21:44:46.971Z,43.63
2022-08-17T21:47:18.737Z,43.40
2022-08-17T21:49:45.575Z,43.95
2022-08-17T21:52:17.576Z,43.55
2022-08-17T21:55:02.359Z,43.43
2022-08-17T21:57:30.105Z,43.55
2022-08-17T22:00:00.440Z,43.88
2022-08-17T22:02:41.743Z,43.86
2022-08-17T22:05:14.619Z,43.74
2022-08-17T22:07:45.745Z,43.50
2022-08-17T22:10:33.255Z,43.32
2022-08-17T22:13:21.513Z,43.16
2022-08-17T22:16:15.614Z,43.04
2022-08-17T22:18:57.558Z,42.93
2022-08-17T22:21:24.637Z,42.83
2022-08-17T22:24:21.125Z,42.79
2022-08-17T22:27:11.897Z,42.99
2022-08-17T22:29:53.182Z,43.37
2022-08-17T22:32:46.320Z,45.33
2022-08-17T22:35:24.872Z,46.66
2022-08-17T22:37:52.013Z,47.49
2022-08-17T22:40:31.771Z,49.41
2022-08-17T22:43:00.730Z,51.31
2022-08-17T22:45:33.763Z,51.58
2022-08-17T22:48:02.026Z,55.89
2022-08-17T22:50:32.966Z,59.32
2022-08-17T22:53:32.785Z,61.58
2022-08-17T22:56:18.611Z,62.80
2022-08-17T22:59:13.307Z,64.39
2022-08-17T23:01:42.777Z,65.94
2022-08-17T23:04:35.776Z,65.29
2022-08-17T23:07:02.682Z,66.15
2022-08-17T23:09:29.894Z,67.01
2022-08-17T23:11:58.627Z,67.90
2022-08-17T23:14:31.379Z,68.16
2022-08-17T23:16:59.590Z,67.42
2022-08-17T23:19:27.953Z,68.06
2022-08-17T23:21:56.303Z,68.99
2022-08-17T23:24:26.632Z,70.12
2022-08-17T23:26:57.235Z,71.04
2022-08-17T23:29:29.560Z,71.73
2022-08-17T23:31:59.877Z,71.45
2022-08-17T23:34:28.090Z,72.44
2022-08-17T23:36:56.241Z,72.69
2022-08-17T23:39:27.519Z,72.53
2022-08-17T23:41:58.199Z,73.11
2022-08-17T23:44:25.821Z,72.30
2022-08-17T23:46:53.385Z,72.36
2022-08-17T23:49:20.626Z,72.14
2022-08-17T23:51:48.459Z,72.45
2022-08-17T23:54:44.041Z,72.61
2022-08-17T23:57:17.665Z,72.53
2022-08-17T23:59:45.515Z,72.53
